Time;durP1;ratioP1;P1;durP2;ratioP2;P2;SDS_P1;SDS_P2;PMS_P1;PMS_P2;Temp;Humidity;BMP_temperature;BMP_pressure;BME280_temperature;BME280_humidity;BME280_pressure;Samples;Min_cycle;Max_cycle;Signal;HPM_P1;HPM_P2
2022/06/22 00:00:26;;;;;;;10.05;5.13;;;12.70;99.90;;;;;;5009886;28;20112;-64
2022/06/22 00:02:54;;;;;;;8.75;5.28;;;12.70;99.90;;;;;;5009624;28;20037;-64
2022/06/22 00:05:37;;;;;;;12.18;5.68;;;12.70;99.90;;;;;;5010092;28;20371;-64
2022/06/22 00:08:07;;;;;;;9.85;5.95;;;12.70;99.90;;;;;;5005565;28;20025;-64
2022/06/22 00:10:37;;;;;;;9.15;5.13;;;12.70;99.90;;;;;;5008223;28;20084;-63
2022/06/22 00:13:04;;;;;;;9.48;5.25;;;12.70;99.90;;;;;;5009239;28;20490;-64
2022/06/22 00:15:39;;;;;;;9.95;5.15;;;12.70;99.90;;;;;;5008297;28;20026;-63
2022/06/22 00:18:29;;;;;;;10.05;6.13;;;12.70;99.90;;;;;;5009159;28;20049;-63
2022/06/22 00:21:18;;;;;;;9.85;6.20;;;12.60;99.90;;;;;;5002991;28;20117;-62
2022/06/22 00:23:47;;;;;;;11.40;6.50;;;12.60;99.90;;;;;;4997196;28;20042;-63
2022/06/22 00:26:27;;;;;;;10.77;6.00;;;12.70;99.90;;;;;;5009247;28;20045;-63
2022/06/22 00:29:04;;;;;;;9.63;6.43;;;12.70;99.90;;;;;;5009538;28;20033;-63
2022/06/22 00:31:36;;;;;;;10.52;6.28;;;12.70;99.90;;;;;;5007784;28;20034;-63
2022/06/22 00:34:11;;;;;;;10.93;5.47;;;12.60;99.90;;;;;;5009479;28;20038;-63
2022/06/22 00:37:04;;;;;;;9.95;5.88;;;12.60;99.90;;;;;;5000951;28;20552;-63
2022/06/22 00:39:30;;;;;;;9.45;5.47;;;12.50;99.90;;;;;;4997642;28;20056;-63
2022/06/22 00:42:21;;;;;;;9.27;6.10;;;12.50;99.90;;;;;;5009172;28;20405;-64
2022/06/22 00:44:57;;;;;;;9.23;5.43;;;12.40;99.90;;;;;;4999450;28;20065;-63
2022/06/22 00:47:27;;;;;;;10.65;6.82;;;12.40;99.90;;;;;;5007871;28;20113;-64
2022/06/22 00:49:56;;;;;;;9.55;5.60;;;12.30;99.90;;;;;;5008377;28;20116;-63
2022/06/22 00:52:59;;;;;;;11.98;6.22;;;12.30;99.90;;;;;;5009354;28;20116;-64
2022/06/22 00:55:37;;;;;;;7.20;5.25;;;12.30;99.90;;;;;;5005337;28;20138;-64
2022/06/22 00:58:15;;;;;;;10.10;5.55;;;12.20;99.90;;;;;;5007498;28;20029;-64
2022/06/22 01:00:51;;;;;;;10.27;6.07;;;12.10;99.90;;;;;;5011154;28;20026;-64
2022/06/22 01:03:22;;;;;;;9.30;5.75;;;12.00;99.90;;;;;;5012778;28;20030;-63
2022/06/22 01:05:51;;;;;;;12.02;6.05;;;12.10;99.90;;;;;;5013292;28;20034;-63
2022/06/22 01:08:45;;;;;;;14.57;5.97;;;12.00;99.90;;;;;;5012758;28;20049;-64
2022/06/22 01:14:12;;;;;;;8.45;6.15;;;11.90;99.90;;;;;;5007088;28;20084;-63
2022/06/22 01:16:42;;;;;;;7.63;6.80;;;11.90;99.90;;;;;;5007499;28;20068;-63
2022/06/22 01:19:30;;;;;;;11.18;7.55;;;11.70;99.90;;;;;;5013083;28;20052;-64
2022/06/22 01:22:35;;;;;;;11.50;7.13;;;11.70;99.90;;;;;;5010888;28;20362;-63
2022/06/22 01:25:28;;;;;;;13.25;6.47;;;11.60;99.90;;;;;;5007840;28;20041;-63
2022/06/22 01:27:54;;;;;;;8.25;5.85;;;11.80;99.90;;;;;;5003863;28;20075;-63
2022/06/22 01:30:37;;;;;;;12.27;7.03;;;11.80;99.90;;;;;;5011907;28;20045;-63
2022/06/22 01:33:15;;;;;;;7.93;4.88;;;11.80;99.90;;;;;;5012679;28;20049;-63
2022/06/22 01:35:41;;;;;;;12.25;5.90;;;11.80;99.90;;;;;;5010255;28;20022;-64
2022/06/22 01:38:22;;;;;;;11.25;6.60;;;11.80;99.90;;;;;;5012653;28;20136;-63
2022/06/22 01:41:09;;;;;;;12.07;6.47;;;11.70;99.90;;;;;;5011818;28;20540;-62
2022/06/22 01:43:39;;;;;;;8.35;5.75;;;11.70;99.90;;;;;;5008682;28;20056;-63
2022/06/22 01:46:22;;;;;;;8.73;6.57;;;11.70;99.90;;;;;;5012392;28;20041;-63
2022/06/22 01:48:59;;;;;;;11.80;6.72;;;11.60;99.90;;;;;;5007702;28;20030;-63
2022/06/22 01:51:38;;;;;;;9.93;6.50;;;11.50;99.90;;;;;;4999725;28;20034;-64
2022/06/22 01:54:14;;;;;;;10.60;6.13;;;11.50;99.90;;;;;;5012072;28;20041;-63
2022/06/22 01:56:57;;;;;;;11.82;7.10;;;11.40;99.90;;;;;;5010207;28;20018;-63
2022/06/22 01:59:31;;;;;;;12.00;6.93;;;11.40;99.90;;;;;;5011561;28;20114;-63
2022/06/22 02:02:21;;;;;;;12.93;8.00;;;11.30;99.90;;;;;;5000097;28;20026;-63
2022/06/22 02:04:56;;;;;;;12.63;7.28;;;11.40;99.90;;;;;;5010329;28;20036;-63
2022/06/22 02:07:44;;;;;;;12.73;7.45;;;11.30;99.90;;;;;;5011860;28;20026;-64
2022/06/22 02:11:01;;;;;;;18.52;7.53;;;11.30;99.90;;;;;;5011407;28;20116;-63
2022/06/22 02:13:44;;;;;;;13.25;8.82;;;11.30;99.90;;;;;;4949018;28;20043;-63
2022/06/22 02:16:25;;;;;;;10.50;7.05;;;11.30;99.90;;;;;;4951212;28;20106;-64
2022/06/22 02:18:59;;;;;;;16.15;6.95;;;11.40;99.90;;;;;;4951777;28;20031;-63
2022/06/22 02:21:40;;;;;;;11.88;8.07;;;11.50;99.90;;;;;;4949688;28;20039;-63
2022/06/22 02:24:17;;;;;;;14.77;7.47;;;11.50;99.90;;;;;;4951457;28;20035;-63
2022/06/22 02:26:49;;;;;;;12.07;7.40;;;11.40;99.90;;;;;;4949198;28;20129;-63
2022/06/22 02:29:19;;;;;;;17.13;7.82;;;11.40;99.90;;;;;;4950906;28;20039;-63
2022/06/22 02:31:46;;;;;;;14.23;6.28;;;11.30;99.90;;;;;;4949349;28;20471;-63
2022/06/22 02:34:15;;;;;;;11.40;6.15;;;11.30;99.90;;;;;;4950955;28;20090;-63
2022/06/22 02:36:44;;;;;;;11.88;6.63;;;11.30;99.90;;;;;;4949389;28;20516;-63
2022/06/22 02:39:11;;;;;;;12.30;7.57;;;11.30;99.90;;;;;;4946055;28;20534;-63
2022/06/22 02:44:30;;;;;;;10.38;7.47;;;11.20;99.90;;;;;;4951216;28;20419;-64
2022/06/22 02:47:10;;;;;;;14.25;8.20;;;11.20;99.90;;;;;;4951007;28;20050;-63
2022/06/22 02:49:41;;;;;;;11.15;8.68;;;11.20;99.90;;;;;;5001073;28;20044;-63
2022/06/22 02:52:10;;;;;;;18.50;8.27;;;11.40;99.90;;;;;;5011210;28;20038;-63
2022/06/22 02:54:42;;;;;;;11.88;7.95;;;11.60;99.90;;;;;;5009162;28;20030;-63
2022/06/22 02:57:29;;;;;;;15.18;9.57;;;11.60;99.90;;;;;;5010535;28;20128;-62
2022/06/22 02:59:56;;;;;;;15.45;8.82;;;11.50;99.90;;;;;;5009840;28;20037;-62
2022/06/22 03:02:24;;;;;;;13.75;9.00;;;11.50;99.90;;;;;;5008711;28;20036;-63
2022/06/22 03:04:51;;;;;;;13.18;8.10;;;11.50;99.90;;;;;;5010938;28;20048;-62
2022/06/22 03:07:18;;;;;;;12.60;8.57;;;11.40;99.90;;;;;;5010843;28;20113;-63
2022/06/22 03:09:46;;;;;;;10.40;8.10;;;11.30;99.90;;;;;;5008930;28;20026;-62
2022/06/22 03:12:13;;;;;;;13.27;7.97;;;11.20;99.90;;;;;;5010205;28;20092;-62
2022/06/22 03:15:01;;;;;;;14.60;8.85;;;11.10;99.90;;;;;;5008621;28;20042;-64
2022/06/22 03:17:38;;;;;;;12.95;7.68;;;11.10;99.90;;;;;;5008957;28;20065;-64
2022/06/22 03:20:07;;;;;;;12.98;8.50;;;11.00;99.90;;;;;;5009890;28;20072;-63
2022/06/22 03:22:49;;;;;;;11.45;7.85;;;11.00;99.90;;;;;;5008761;28;20034;-64
2022/06/22 03:25:48;;;;;;;16.10;9.60;;;11.00;99.90;;;;;;5010303;28;20096;-64
2022/06/22 03:28:18;;;;;;;16.02;8.10;;;11.00;99.90;;;;;;5005987;28;20037;-64
2022/06/22 03:30:58;;;;;;;13.38;8.35;;;10.90;99.90;;;;;;5008589;28;20108;-64
2022/06/22 03:33:36;;;;;;;15.15;8.40;;;10.80;99.90;;;;;;5008801;28;20064;-64
2022/06/22 03:36:25;;;;;;;13.32;8.38;;;10.70;99.90;;;;;;5010370;28;20029;-63
2022/06/22 03:38:59;;;;;;;12.52;7.40;;;10.70;99.90;;;;;;5008404;28;20077;-63
2022/06/22 03:41:28;;;;;;;15.00;8.10;;;10.60;99.90;;;;;;5008150;28;20130;-64
2022/06/22 03:44:10;;;;;;;12.82;8.15;;;10.60;99.90;;;;;;5010207;28;20109;-63
2022/06/22 03:46:42;;;;;;;13.05;7.72;;;10.60;99.90;;;;;;5000882;28;20030;-63
2022/06/22 03:49:15;;;;;;;14.75;6.55;;;10.70;99.90;;;;;;5010141;28;20113;-63
2022/06/22 03:52:13;;;;;;;12.23;8.38;;;10.70;99.90;;;;;;4999735;28;20026;-63
2022/06/22 03:54:50;;;;;;;15.30;8.30;;;10.70;99.90;;;;;;5007121;28;20046;-62
2022/06/22 03:57:22;;;;;;;14.35;7.75;;;10.70;99.90;;;;;;5009625;28;20022;-62
2022/06/22 03:59:48;;;;;;;10.63;7.32;;;10.60;99.90;;;;;;5000633;28;20041;-63
2022/06/22 04:02:14;;;;;;;14.50;8.85;;;10.60;99.90;;;;;;5009836;28;20402;-62
2022/06/22 04:04:40;;;;;;;11.98;7.97;;;10.50;99.90;;;;;;5008133;28;20029;-62
2022/06/22 04:07:13;;;;;;;12.32;7.90;;;10.50;99.90;;;;;;5010322;28;20089;-63
2022/06/22 04:09:41;;;;;;;13.00;8.88;;;10.40;99.90;;;;;;4998592;28;20482;-63
2022/06/22 04:12:15;;;;;;;14.23;7.85;;;10.40;99.90;;;;;;5009532;28;20038;-63
2022/06/22 04:15:01;;;;;;;13.82;8.30;;;10.40;99.90;;;;;;5008024;28;20062;-63
2022/06/22 04:17:56;;;;;;;14.30;7.63;;;10.50;99.90;;;;;;5006695;28;20089;-63
2022/06/22 04:20:51;;;;;;;11.82;8.98;;;10.70;99.90;;;;;;4999426;28;20030;-63
2022/06/22 04:23:40;;;;;;;16.85;9.63;;;10.80;99.90;;;;;;5009342;28;20026;-63
2022/06/22 04:26:15;;;;;;;13.85;8.98;;;11.00;99.90;;;;;;5009441;28;20148;-63
2022/06/22 04:28:45;;;;;;;11.88;8.68;;;11.00;99.90;;;;;;5007598;28;20049;-63
2022/06/22 04:31:17;;;;;;;13.65;8.80;;;11.00;99.90;;;;;;5010187;28;20026;-63
2022/06/22 04:33:52;;;;;;;12.45;8.77;;;10.90;99.90;;;;;;5012047;28;20029;-65
2022/06/22 04:36:27;;;;;;;12.77;8.88;;;10.80;99.90;;;;;;5013424;28;20107;-64
2022/06/22 04:39:01;;;;;;;14.00;8.75;;;10.70;99.90;;;;;;5013704;28;20057;-64
2022/06/22 04:41:34;;;;;;;17.83;9.63;;;10.70;99.90;;;;;;5011235;28;20075;-63
2022/06/22 04:44:10;;;;;;;15.90;8.70;;;10.60;99.90;;;;;;5013746;28;20033;-63
2022/06/22 04:46:42;;;;;;;16.13;9.38;;;10.60;99.90;;;;;;5011663;28;20386;-64
2022/06/22 04:49:28;;;;;;;11.55;8.98;;;10.70;99.90;;;;;;5013508;28;20445;-63
2022/06/22 04:52:00;;;;;;;12.82;8.50;;;10.80;99.90;;;;;;5013001;28;20037;-64
2022/06/22 04:54:34;;;;;;;16.40;8.52;;;10.90;99.90;;;;;;5011578;28;20058;-63
2022/06/22 04:57:14;;;;;;;16.67;9.50;;;11.00;99.90;;;;;;5012867;28;20026;-63
2022/06/22 04:59:41;;;;;;;16.58;10.32;;;11.10;99.90;;;;;;5010923;28;20029;-63
2022/06/22 05:02:11;;;;;;;14.85;10.48;;;11.20;99.90;;;;;;5013344;28;20394;-64
2022/06/22 05:04:48;;;;;;;21.25;9.98;;;11.40;99.90;;;;;;5011588;28;20058;-64
2022/06/22 05:07:31;;;;;;;16.88;9.73;;;11.40;99.90;;;;;;5012953;28;20029;-64
2022/06/22 05:10:41;;;;;;;17.02;10.15;;;11.50;99.90;;;;;;5006292;28;20026;-63
2022/06/22 05:13:26;;;;;;;16.55;10.48;;;11.50;99.90;;;;;;5012361;28;20046;-63
2022/06/22 05:15:58;;;;;;;18.27;11.48;;;11.40;99.90;;;;;;5007289;28;20033;-64
2022/06/22 05:18:31;;;;;;;16.58;10.85;;;11.60;99.90;;;;;;4999903;28;20022;-63
2022/06/22 05:21:06;;;;;;;15.63;9.45;;;11.70;99.90;;;;;;5012968;28;20034;-63
2022/06/22 05:23:33;;;;;;;17.52;10.50;;;11.70;99.90;;;;;;5000649;28;20038;-62
2022/06/22 05:26:06;;;;;;;18.80;12.95;;;11.80;99.90;;;;;;5011943;28;20034;-63
2022/06/22 05:28:50;;;;;;;18.25;9.73;;;11.90;99.90;;;;;;4999527;28;20025;-62
2022/06/22 05:31:25;;;;;;;13.40;9.55;;;11.90;99.90;;;;;;5012661;28;20490;-62
2022/06/22 05:33:55;;;;;;;13.10;8.57;;;12.00;99.90;;;;;;5012680;28;20068;-63
2022/06/22 05:36:24;;;;;;;14.70;9.02;;;12.00;99.90;;;;;;5011776;28;20025;-63
2022/06/22 05:38:53;;;;;;;13.60;8.68;;;12.10;99.90;;;;;;5012649;28;20034;-63
2022/06/22 05:41:27;;;;;;;15.40;8.90;;;12.10;99.90;;;;;;5012237;28;20026;-64
2022/06/22 05:43:57;;;;;;;11.27;7.38;;;12.20;99.90;;;;;;5004235;28;20105;-63
2022/06/22 05:46:23;;;;;;;17.67;9.32;;;12.20;99.90;;;;;;5005891;28;20397;-64
2022/06/22 05:48:50;;;;;;;9.32;6.88;;;12.30;99.90;;;;;;5012144;28;20025;-63
2022/06/22 05:51:28;;;;;;;12.40;7.60;;;12.30;99.90;;;;;;5012186;28;20034;-63
2022/06/22 05:54:10;;;;;;;14.32;8.48;;;12.30;99.90;;;;;;5011404;28;20030;-63
2022/06/22 05:56:47;;;;;;;14.57;7.97;;;12.40;99.90;;;;;;5004030;28;20080;-63
2022/06/22 05:59:30;;;;;;;14.90;7.03;;;12.50;99.90;;;;;;5007266;28;20100;-63
2022/06/22 06:02:09;;;;;;;12.98;7.55;;;12.60;99.90;;;;;;5012108;28;20095;-63
2022/06/22 06:04:38;;;;;;;15.85;8.43;;;12.50;99.90;;;;;;5009748;28;20548;-64
2022/06/22 06:07:24;;;;;;;10.77;7.65;;;12.60;99.90;;;;;;5011278;28;20034;-64
2022/06/22 06:09:50;;;;;;;10.70;6.95;;;12.60;99.90;;;;;;5007131;28;20033;-63
2022/06/22 06:12:31;;;;;;;14.32;7.35;;;12.70;99.90;;;;;;5011124;28;20141;-63
2022/06/22 06:14:57;;;;;;;9.48;7.10;;;12.80;99.90;;;;;;5004443;28;20026;-64
2022/06/22 06:17:34;;;;;;;15.40;7.28;;;12.80;99.90;;;;;;5011549;28;20113;-64
2022/06/22 06:20:03;;;;;;;13.02;7.45;;;12.90;99.90;;;;;;5004845;28;20029;-63
2022/06/22 06:22:31;;;;;;;13.98;7.05;;;13.00;99.90;;;;;;5009796;28;20048;-63
2022/06/22 06:28:16;;;;;;;12.80;7.20;;;13.10;99.90;;;;;;4989426;28;20112;-64
2022/06/22 06:30:49;;;;;;;11.25;7.25;;;13.10;99.90;;;;;;4978837;28;20487;-64
2022/06/22 06:33:28;;;;;;;13.23;7.47;;;13.20;99.90;;;;;;4989374;28;20042;-64
2022/06/22 06:35:56;;;;;;;15.05;8.02;;;13.30;99.90;;;;;;4989656;28;20030;-65
2022/06/22 06:38:41;;;;;;;9.80;7.05;;;13.40;99.90;;;;;;4989329;28;20030;-65
2022/06/22 06:41:10;;;;;;;19.92;9.38;;;13.50;99.90;;;;;;4988061;28;20108;-62
2022/06/22 06:43:47;;;;;;;15.63;7.28;;;13.60;99.90;;;;;;4987314;28;20062;-64
2022/06/22 06:46:18;;;;;;;11.50;6.28;;;13.70;99.90;;;;;;4989500;28;20042;-62
2022/06/22 06:48:51;;;;;;;16.75;8.40;;;13.80;99.90;;;;;;4986433;28;20099;-62
2022/06/22 06:51:20;;;;;;;11.68;7.30;;;13.80;99.90;;;;;;4989265;28;20030;-63
2022/06/22 06:54:09;;;;;;;16.45;7.55;;;13.90;99.90;;;;;;4987153;28;20121;-63
2022/06/22 06:56:57;;;;;;;10.52;6.38;;;14.10;99.90;;;;;;4973746;28;20526;-63
2022/06/22 06:59:28;;;;;;;11.27;7.82;;;14.20;99.90;;;;;;5001009;28;20045;-63
2022/06/22 07:01:54;;;;;;;15.32;6.65;;;14.30;99.90;;;;;;5010721;28;20022;-63
2022/06/22 07:04:34;;;;;;;12.32;6.72;;;14.40;99.90;;;;;;5010515;28;20084;-63
2022/06/22 07:07:12;;;;;;;11.20;7.40;;;14.40;99.90;;;;;;5010163;28;20029;-64
2022/06/22 07:09:40;;;;;;;14.55;5.78;;;14.50;99.90;;;;;;4999190;28;20034;-63
2022/06/22 07:12:31;;;;;;;11.68;6.80;;;14.60;99.90;;;;;;5009890;28;20041;-64
2022/06/22 07:15:00;;;;;;;14.95;6.57;;;14.70;99.90;;;;;;5000301;28;20034;-63
2022/06/22 07:17:28;;;;;;;11.48;6.93;;;14.80;99.90;;;;;;5008361;28;20076;-63
2022/06/22 07:19:59;;;;;;;11.98;6.70;;;15.00;99.90;;;;;;5010354;28;20061;-63
2022/06/22 07:22:31;;;;;;;10.03;6.17;;;15.10;99.90;;;;;;5009411;28;20129;-63
2022/06/22 07:25:18;;;;;;;8.13;5.85;;;15.20;99.90;;;;;;5011346;28;20022;-63
2022/06/22 07:28:00;;;;;;;10.13;6.47;;;15.30;99.90;;;;;;5008213;28;20249;-63
2022/06/22 07:31:24;;;;;;;11.68;6.28;;;15.40;99.90;;;;;;5007289;28;20042;-64
2022/06/22 07:34:11;;;;;;;9.68;6.15;;;15.40;99.90;;;;;;4989187;28;20038;-64
2022/06/22 07:36:52;;;;;;;9.27;4.97;;;15.60;99.90;;;;;;5008894;28;20033;-62
2022/06/22 07:39:40;;;;;;;12.18;5.18;;;15.70;99.90;;;;;;5009583;28;20030;-64
2022/06/22 07:42:11;;;;;;;11.40;4.80;;;16.00;99.90;;;;;;5001098;28;20030;-65
2022/06/22 07:44:37;;;;;;;12.57;4.30;;;16.20;99.90;;;;;;5008000;28;20053;-64
2022/06/22 07:47:17;;;;;;;11.43;4.18;;;16.40;99.90;;;;;;5005957;28;20030;-65
2022/06/22 07:50:12;;;;;;;7.97;4.05;;;16.60;99.90;;;;;;5004240;28;20100;-66
2022/06/22 07:52:46;;;;;;;6.40;3.53;;;16.80;99.90;;;;;;5019564;28;20030;-65
2022/06/22 07:55:44;;;;;;;7.10;3.75;;;16.90;99.90;;;;;;5009600;28;20147;-65
2022/06/22 07:58:27;;;;;;;7.20;3.30;;;17.10;99.90;;;;;;5002678;28;20120;-64
2022/06/22 08:01:20;;;;;;;6.53;3.28;;;17.20;99.90;;;;;;5007910;28;20711;-64
2022/06/22 08:03:52;;;;;;;7.90;3.97;;;17.40;99.90;;;;;;5012157;28;20041;-65
2022/06/22 08:06:23;;;;;;;5.68;2.80;;;17.50;99.90;;;;;;5009802;28;20030;-63
2022/06/22 08:08:58;;;;;;;9.32;3.00;;;17.60;99.90;;;;;;5008330;28;20026;-63
2022/06/22 08:11:37;;;;;;;7.93;3.40;;;17.50;99.90;;;;;;5013630;28;20018;-64
2022/06/22 08:14:13;;;;;;;4.55;2.22;;;17.60;99.90;;;;;;5016050;28;20069;-64
2022/06/22 08:16:50;;;;;;;6.53;2.35;;;17.70;99.90;;;;;;4997964;28;20093;-65
2022/06/22 08:19:16;;;;;;;5.82;1.98;;;17.90;99.90;;;;;;5009594;28;20421;-65
2022/06/22 08:21:47;;;;;;;5.63;2.63;;;18.20;99.90;;;;;;5007401;28;20018;-64
2022/06/22 08:24:15;;;;;;;6.03;1.73;;;18.20;99.90;;;;;;5009893;28;20030;-64
2022/06/22 08:26:42;;;;;;;4.72;2.00;;;18.30;99.90;;;;;;5007042;28;20366;-63
2022/06/22 08:29:09;;;;;;;10.50;2.58;;;18.30;99.90;;;;;;5009547;28;20048;-63
2022/06/22 08:32:14;;;;;;;5.47;1.48;;;18.40;99.90;;;;;;5014708;28;20083;-64
2022/06/22 08:34:45;;;;;;;4.55;2.15;;;18.40;99.90;;;;;;5006358;28;20140;-63
2022/06/22 08:37:30;;;;;;;2.47;1.27;;;18.70;99.90;;;;;;5008910;28;20063;-64
2022/06/22 08:40:16;;;;;;;5.70;1.67;;;18.80;99.90;;;;;;5009411;28;20056;-64
2022/06/22 08:42:54;;;;;;;7.97;1.77;;;18.70;99.90;;;;;;5022666;28;20042;-63
2022/06/22 08:45:34;;;;;;;5.55;1.70;;;18.80;99.90;;;;;;5008826;28;20393;-63
2022/06/22 08:48:31;;;;;;;4.40;1.20;;;18.70;99.90;;;;;;5014779;28;20034;-63
2022/06/22 08:51:11;;;;;;;4.15;1.30;;;18.80;99.90;;;;;;5002395;28;20061;-64
2022/06/22 08:53:56;;;;;;;3.90;1.42;;;18.90;99.90;;;;;;5007284;28;20048;-65
2022/06/22 08:56:39;;;;;;;3.25;1.40;;;19.10;99.90;;;;;;5003898;28;20018;-65
2022/06/22 08:59:16;;;;;;;7.60;1.58;;;19.20;99.90;;;;;;5006081;28;20040;-66
2022/06/22 09:02:02;;;;;;;7.00;1.42;;;19.50;99.90;;;;;;5001698;28;20113;-64
2022/06/22 09:04:34;;;;;;;3.13;1.15;;;19.80;99.90;;;;;;5007047;28;20034;-65
2022/06/22 09:07:19;;;;;;;;;;;20.00;99.90;;;;;;5009532;28;20397;-64
2022/06/22 09:10:04;;;;;;;3.25;1.10;;;20.20;99.90;;;;;;5007535;28;20384;-64
2022/06/22 09:12:57;;;;;;;7.13;1.10;;;20.40;97.90;;;;;;5001612;28;20109;-64
2022/06/22 09:15:34;;;;;;;2.40;0.80;;;20.30;99.90;;;;;;5007728;28;20497;-64
2022/06/22 09:18:24;;;;;;;6.03;1.50;;;20.30;96.50;;;;;;5008036;28;20025;-64
2022/06/22 09:21:02;;;;;;;3.78;1.13;;;20.60;97.10;;;;;;5006602;28;20030;-63
2022/06/22 09:23:31;;;;;;;3.92;1.67;;;20.80;96.90;;;;;;5000411;28;20042;-64
2022/06/22 09:26:12;;;;;;;5.93;1.45;;;20.90;96.10;;;;;;5012571;28;20025;-64
2022/06/22 09:29:13;;;;;;;5.38;1.00;;;21.10;97.10;;;;;;5000996;28;20030;-63
2022/06/22 09:31:58;;;;;;;3.60;1.02;;;21.10;97.80;;;;;;5011119;28;20041;-63
2022/06/22 09:34:52;;;;;;;4.68;1.40;;;21.20;96.50;;;;;;5012851;28;20060;-64
2022/06/22 09:37:53;;;;;;;3.85;1.15;;;21.20;97.10;;;;;;5008383;28;20036;-64
2022/06/22 09:40:45;;;;;;;4.87;1.07;;;21.30;96.90;;;;;;5012144;28;20528;-64
2022/06/22 09:43:44;;;;;;;6.75;1.20;;;21.20;96.10;;;;;;5006997;28;20057;-63
2022/06/22 09:46:39;;;;;;;5.60;0.95;;;21.50;95.70;;;;;;5012521;28;20049;-63
2022/06/22 09:49:14;;;;;;;3.10;0.93;;;21.50;95.00;;;;;;5006530;28;20041;-63
2022/06/22 09:52:11;;;;;;;1.85;0.93;;;21.60;95.30;;;;;;5005713;28;20036;-64
2022/06/22 09:57:53;;;;;;;4.57;1.00;;;22.00;94.60;;;;;;4960590;28;20207;-64
2022/06/22 10:00:48;;;;;;;4.97;1.13;;;22.00;93.60;;;;;;4971222;28;20076;-64
2022/06/22 10:03:29;;;;;;;2.97;1.15;;;22.00;93.30;;;;;;4971291;28;20427;-64
2022/06/22 10:06:37;;;;;;;4.45;1.00;;;22.20;92.00;;;;;;4971086;28;20063;-64
2022/06/22 10:09:17;;;;;;;8.48;2.10;;;22.40;91.80;;;;;;4970855;28;20086;-65
2022/06/22 10:12:01;;;;;;;1.88;1.05;;;22.60;91.30;;;;;;4957358;28;20144;-64
2022/06/22 10:14:29;;;;;;;2.90;1.73;;;22.70;90.10;;;;;;4969029;28;20055;-62
2022/06/22 10:17:17;;;;;;;1.83;0.80;;;22.70;88.90;;;;;;4971059;28;20034;-64
2022/06/22 10:19:45;;;;;;;1.88;0.90;;;22.80;87.10;;;;;;4968897;28;20034;-64
2022/06/22 10:22:35;;;;;;;1.33;0.90;;;22.80;87.10;;;;;;4970891;28;20050;-65
2022/06/22 10:25:25;;;;;;;1.85;0.85;;;23.00;87.40;;;;;;4976699;28;20093;-63
2022/06/22 10:28:40;;;;;;;2.50;0.90;;;23.10;85.30;;;;;;4965166;28;20069;-64
2022/06/22 10:31:14;;;;;;;2.75;1.30;;;22.90;85.40;;;;;;4950913;28;20357;-64
2022/06/22 10:33:54;;;;;;;3.40;0.75;;;23.20;86.30;;;;;;4949621;28;20043;-64
2022/06/22 10:36:52;;;;;;;4.95;1.02;;;23.30;81.10;;;;;;4969824;28;20603;-64
2022/06/22 10:39:30;;;;;;;3.30;0.95;;;23.50;79.90;;;;;;4970193;28;20446;-64
2022/06/22 10:45:59;;;;;;;3.75;1.00;;;23.70;78.50;;;;;;4968647;28;20462;-64
2022/06/22 10:48:25;;;;;;;2.08;1.23;;;23.70;72.20;;;;;;4962635;28;20553;-65
2022/06/22 10:51:13;;;;;;;3.47;1.08;;;23.80;73.20;;;;;;4970178;28;20031;-64
2022/06/22 10:53:42;;;;;;;3.03;0.70;;;23.80;72.20;;;;;;4929866;29;20051;-64
2022/06/22 10:56:39;;;;;;;1.83;0.80;;;23.70;71.50;;;;;;4930959;29;20036;-65
2022/06/22 10:59:42;;;;;;;1.90;0.60;;;23.90;70.80;;;;;;4931370;29;20047;-63
2022/06/22 11:02:58;;;;;;;2.17;0.75;;;24.10;68.30;;;;;;4931630;29;20039;-64
2022/06/22 11:05:45;;;;;;;4.63;1.38;;;24.20;68.00;;;;;;4955383;28;20494;-64
2022/06/22 11:08:23;;;;;;;5.22;0.77;;;24.60;68.10;;;;;;4961246;28;20122;-64
2022/06/22 11:11:12;;;;;;;2.08;0.80;;;24.90;64.90;;;;;;4967698;28;20038;-62
2022/06/22 11:13:47;;;;;;;4.20;1.05;;;25.30;63.70;;;;;;4968192;28;20491;-64
2022/06/22 11:16:28;;;;;;;1.80;0.60;;;25.80;62.00;;;;;;4969926;28;20030;-63
2022/06/22 11:19:08;;;;;;;3.42;0.80;;;26.00;59.30;;;;;;4961328;28;20081;-64
2022/06/22 11:22:00;;;;;;;5.45;1.10;;;26.20;57.20;;;;;;4968085;28;20027;-63
2022/06/22 11:24:39;;;;;;;4.45;0.80;;;26.50;56.50;;;;;;4965020;28;20042;-64
2022/06/22 11:33:42;;;;;;;5.68;1.10;;;27.00;55.70;;;;;;5006072;28;20115;-64
2022/06/22 11:36:23;;;;;;;1.17;0.73;;;27.20;53.50;;;;;;5011036;28;20390;-65
2022/06/22 11:39:16;;;;;;;3.13;0.70;;;27.10;52.30;;;;;;5000541;28;20054;-64
2022/06/22 11:41:45;;;;;;;1.60;0.77;;;27.40;49.80;;;;;;5007681;28;20029;-64
2022/06/22 11:44:43;;;;;;;2.78;0.63;;;27.60;49.30;;;;;;5010288;28;20037;-65
2022/06/22 11:47:27;;;;;;;3.60;0.70;;;27.90;49.50;;;;;;5010287;28;20022;-63
2022/06/22 11:50:13;;;;;;;2.22;0.90;;;28.10;48.70;;;;;;5010376;28;20105;-64
2022/06/22 11:53:27;;;;;;;3.03;1.00;;;28.10;48.70;;;;;;5008730;28;20026;-64
2022/06/22 11:55:57;;;;;;;2.63;0.70;;;28.30;46.80;;;;;;5009932;28;20030;-63
2022/06/22 11:58:45;;;;;;;3.10;1.08;;;28.20;45.40;;;;;;5010345;28;20030;-63
2022/06/22 12:01:58;;;;;;;3.47;1.33;;;28.50;45.20;;;;;;5015402;28;20025;-64
2022/06/22 12:04:45;;;;;;;2.15;1.00;;;28.70;44.00;;;;;;4988244;28;20042;-63
2022/06/22 12:07:36;;;;;;;1.58;0.75;;;28.70;43.30;;;;;;4984444;28;20034;-64
2022/06/22 12:10:39;;;;;;;1.35;0.88;;;28.90;42.50;;;;;;4988058;28;20043;-63
2022/06/22 12:13:28;;;;;;;2.40;1.10;;;29.20;41.70;;;;;;4987017;28;20046;-64
2022/06/22 12:16:16;;;;;;;5.25;1.83;;;28.90;41.70;;;;;;4988075;28;20054;-64
2022/06/22 12:18:53;;;;;;;5.80;0.90;;;28.80;41.60;;;;;;4977126;28;20034;-64
2022/06/22 12:21:22;;;;;;;0.98;0.63;;;28.90;41.10;;;;;;4987756;28;20121;-64
2022/06/22 12:24:26;;;;;;;1.60;1.20;;;29.00;40.30;;;;;;4986070;28;20081;-64
2022/06/22 12:27:03;;;;;;;8.93;1.10;;;29.40;40.70;;;;;;4976132;28;20556;-65
2022/06/22 12:29:50;;;;;;;1.23;0.60;;;29.80;39.70;;;;;;4986043;28;20050;-64
2022/06/22 12:32:37;;;;;;;2.63;0.77;;;30.10;39.70;;;;;;4987940;28;20502;-65
2022/06/22 12:35:41;;;;;;;2.00;1.30;;;29.70;39.20;;;;;;4987670;28;20457;-64
2022/06/22 12:38:28;;;;;;;1.05;0.88;;;30.00;39.20;;;;;;4987554;28;20026;-63
2022/06/22 12:40:59;;;;;;;1.75;0.70;;;29.90;39.80;;;;;;5000687;28;20041;-63
2022/06/22 12:43:42;;;;;;;2.30;0.80;;;30.10;39.20;;;;;;5009224;28;20106;-65
2022/06/22 12:46:28;;;;;;;5.68;1.65;;;30.10;39.50;;;;;;5009584;28;20030;-63
2022/06/22 12:48:57;;;;;;;4.95;1.40;;;30.60;38.40;;;;;;5002003;28;20018;-64
2022/06/22 12:51:51;;;;;;;9.60;1.30;;;30.90;39.20;;;;;;5024277;28;20083;-64
2022/06/22 12:54:30;;;;;;;4.45;1.20;;;30.40;39.70;;;;;;5006257;28;20041;-64
2022/06/22 12:57:04;;;;;;;6.05;1.20;;;30.40;39.90;;;;;;5009375;28;20053;-63
2022/06/22 12:59:41;;;;;;;1.85;1.10;;;30.70;38.70;;;;;;5012254;28;20032;-63
2022/06/22 13:02:13;;;;;;;1.13;0.73;;;30.50;37.30;;;;;;5013381;28;20116;-64
2022/06/22 13:04:42;;;;;;;4.13;1.08;;;30.10;38.10;;;;;;5002388;28;20049;-65
2022/06/22 13:07:14;;;;;;;8.02;1.30;;;30.50;37.90;;;;;;5013417;28;20026;-65
2022/06/22 13:09:40;;;;;;;3.80;0.93;;;31.00;37.80;;;;;;5011532;28;20101;-65
2022/06/22 13:12:36;;;;;;;1.90;1.00;;;30.90;38.90;;;;;;5012963;28;20091;-65
2022/06/22 13:15:11;;;;;;;3.90;1.15;;;30.70;38.50;;;;;;5011803;28;20387;-64
2022/06/22 13:18:01;;;;;;;2.92;0.90;;;31.00;38.60;;;;;;5011200;28;20034;-65
2022/06/22 13:21:05;;;;;;;3.00;0.85;;;31.20;37.70;;;;;;5010743;28;20026;-65
2022/06/22 13:23:34;;;;;;;2.08;0.77;;;31.80;37.00;;;;;;5005102;28;20045;-64
2022/06/22 13:26:18;;;;;;;9.88;1.42;;;31.20;36.90;;;;;;5012553;28;20486;-63
2022/06/22 13:28:51;;;;;;;2.28;0.95;;;31.70;36.30;;;;;;5001770;28;20470;-64
2022/06/22 13:31:24;;;;;;;3.33;1.10;;;31.20;37.60;;;;;;5012787;28;20046;-64
2022/06/22 13:33:55;;;;;;;1.92;0.88;;;32.00;37.20;;;;;;5010874;28;20037;-64
2022/06/22 13:36:36;;;;;;;6.97;1.23;;;32.50;35.70;;;;;;5012410;28;20026;-64
2022/06/22 13:39:02;;;;;;;4.85;1.17;;;32.80;35.50;;;;;;5012453;28;20030;-64
2022/06/22 13:41:45;;;;;;;1.80;0.70;;;32.60;34.60;;;;;;5009767;28;20449;-64
2022/06/22 13:44:14;;;;;;;1.83;0.93;;;32.20;34.40;;;;;;5012313;28;20037;-64
2022/06/22 13:46:59;;;;;;;1.95;0.93;;;32.10;35.60;;;;;;5010320;28;20393;-64
2022/06/22 13:50:17;;;;;;;2.67;1.00;;;32.60;34.10;;;;;;5012204;28;20034;-63
2022/06/22 13:52:47;;;;;;;2.70;1.25;;;32.80;34.80;;;;;;5010000;28;20033;-64
2022/06/22 13:55:27;;;;;;;3.50;1.03;;;32.70;34.80;;;;;;5012074;28;20107;-64
2022/06/22 13:58:03;;;;;;;2.13;0.93;;;33.30;34.60;;;;;;5011884;28;20263;-64
2022/06/22 14:00:42;;;;;;;2.28;0.90;;;33.00;35.70;;;;;;5010509;28;20112;-65
2022/06/22 14:03:38;;;;;;;3.13;1.20;;;32.70;35.30;;;;;;5011923;28;20062;-64
2022/06/22 14:06:23;;;;;;;2.42;0.95;;;33.30;34.40;;;;;;5005596;28;20474;-64
2022/06/22 14:09:11;;;;;;;4.40;1.15;;;32.80;34.90;;;;;;5010110;28;20032;-64